首页
METAR-TAF:

METAR-TAF

机场 :

New Ulm Municipal Airport

New Ulm, 明尼蘇達州, 美国

纬度: 44-19N, 经度: 094-30W, 海拔: 308米

当前天气观测

该预报发布于22分钟前的14:15 UTC
风速12节,风向,有时为27节阵风
温度 18°C
湿度 94%
气压 1018 hPa
能見度: 0.8公里
阴天层高于100英尺
雷暴, 大雨

METAR: KULM 121415Z AUTO 36012G27KT 1/2SM +TSRA OVC001 18/17 A3005 RMK AO2 P0006 LTG DSNT ALQDS

时间: 09:37 (14:37 UTC)


TAF: 丢失

超过4000个机场的气象观测和天气预报(METAR&TAF报告)。

可查询的气象台以黄色和红色小点在地图上表示。

将鼠标移到小点上方,可查看气象台名称。

然后点击查看天气观测和预报。

如需切换地图:点击带黑十字的绿色按钮放大地图;点击带横线的绿色按钮缩小地图;或者点击绿色箭头查看邻近地区的地图。


METAR-TAF: